createdAt,value
2018-06-22T00:02:11.667Z,9.00
2018-06-22T00:04:40.119Z,9.00
2018-06-22T00:07:08.542Z,9.00
2018-06-22T00:09:36.974Z,9.00
2018-06-22T00:12:05.419Z,9.00
2018-06-22T00:14:33.882Z,9.00
2018-06-22T00:17:02.321Z,9.00
2018-06-22T00:19:30.745Z,9.00
2018-06-22T00:24:27.332Z,9.00
2018-06-22T00:26:55.795Z,9.00
2018-06-22T00:29:24.257Z,9.00
2018-06-22T00:31:52.677Z,8.90
2018-06-22T00:34:21.114Z,8.80
2018-06-22T00:36:49.531Z,8.80
2018-06-22T00:39:17.945Z,8.80
2018-06-22T00:41:46.361Z,8.70
2018-06-22T00:44:14.765Z,8.70
2018-06-22T00:46:43.178Z,8.70
2018-06-22T00:49:11.594Z,8.60
2018-06-22T00:54:13.904Z,8.60
2018-06-22T00:56:42.330Z,8.50
2018-06-22T00:59:11.354Z,8.50
2018-06-22T01:01:39.826Z,8.40
2018-06-22T01:04:08.772Z,8.40
2018-06-22T01:06:37.302Z,8.50
2018-06-22T01:11:35.849Z,8.40
2018-06-22T01:14:04.547Z,8.30
2018-06-22T01:16:33.035Z,8.40
2018-06-22T01:19:01.495Z,8.40
2018-06-22T01:21:29.994Z,8.40
2018-06-22T01:23:58.454Z,8.30
2018-06-22T01:26:26.954Z,8.30
2018-06-22T01:29:00.767Z,8.20
2018-06-22T01:31:29.269Z,8.10
2018-06-22T01:33:57.943Z,8.10
2018-06-22T01:36:26.617Z,8.00
2018-06-22T01:38:55.086Z,8.00
2018-06-22T01:41:23.844Z,8.00
2018-06-22T01:43:52.310Z,8.00
2018-06-22T01:46:20.822Z,8.00
2018-06-22T01:48:49.469Z,8.00
2018-06-22T01:51:17.994Z,8.00
2018-06-22T01:53:46.616Z,8.00
2018-06-22T01:56:15.087Z,7.90
2018-06-22T01:58:43.545Z,7.80
2018-06-22T02:01:12.042Z,7.70
2018-06-22T02:03:40.506Z,7.60
2018-06-22T02:06:08.986Z,7.50
2018-06-22T02:08:37.430Z,7.50
2018-06-22T02:11:05.973Z,7.50
2018-06-22T02:13:34.435Z,7.50
2018-06-22T02:16:03.114Z,7.50
2018-06-22T02:18:31.597Z,7.60
2018-06-22T02:21:00.158Z,7.60
2018-06-22T02:23:28.622Z,7.60
2018-06-22T02:25:57.121Z,7.60
2018-06-22T02:28:25.653Z,7.60
2018-06-22T02:30:54.109Z,7.50
2018-06-22T02:33:22.588Z,7.40
2018-06-22T02:35:51.062Z,7.30
2018-06-22T02:38:19.555Z,7.30
2018-06-22T02:40:48.050Z,7.30
2018-06-22T02:43:16.533Z,7.30
2018-06-22T02:45:44.990Z,7.30
2018-06-22T02:48:13.474Z,7.30
2018-06-22T02:50:41.979Z,7.30
2018-06-22T02:55:38.713Z,7.20
2018-06-22T02:58:07.194Z,7.10
2018-06-22T03:00:35.677Z,7.10
2018-06-22T03:03:04.166Z,6.90
2018-06-22T03:05:32.626Z,6.80
2018-06-22T03:08:01.095Z,6.90
2018-06-22T03:10:29.564Z,6.90
2018-06-22T03:12:58.044Z,6.90
2018-06-22T03:15:26.469Z,6.80
2018-06-22T03:17:54.973Z,6.90
2018-06-22T03:20:23.365Z,6.90
2018-06-22T03:22:51.770Z,6.80
2018-06-22T03:25:20.169Z,6.70
2018-06-22T03:27:48.619Z,6.70
2018-06-22T03:30:17.035Z,6.60
2018-06-22T03:32:45.449Z,6.60
2018-06-22T03:37:41.951Z,6.70
2018-06-22T03:40:10.350Z,6.70
2018-06-22T03:42:38.794Z,6.70
2018-06-22T03:45:07.214Z,6.70
2018-06-22T03:47:35.661Z,6.70
2018-06-22T03:50:04.141Z,6.70
2018-06-22T03:52:32.585Z,6.60
2018-06-22T03:55:00.988Z,6.70
2018-06-22T03:57:29.446Z,6.70
2018-06-22T03:59:57.849Z,6.80
2018-06-22T04:02:26.275Z,6.80
2018-06-22T04:04:54.683Z,6.90
2018-06-22T04:07:23.103Z,6.90
2018-06-22T04:09:51.514Z,7.00
2018-06-22T04:14:48.054Z,7.20
2018-06-22T04:17:16.486Z,7.30
2018-06-22T04:19:44.929Z,7.40
2018-06-22T04:22:13.394Z,7.60
2018-06-22T04:24:41.828Z,7.70
2018-06-22T04:27:10.334Z,7.90
2018-06-22T04:29:38.790Z,8.00
2018-06-22T04:32:07.218Z,8.00
2018-06-22T04:34:35.650Z,8.10
2018-06-22T04:37:04.058Z,8.20
2018-06-22T04:39:32.502Z,8.20
2018-06-22T04:42:00.950Z,8.30
2018-06-22T04:44:29.394Z,8.30
2018-06-22T04:46:57.803Z,8.30
2018-06-22T04:49:26.249Z,8.30
2018-06-22T04:51:54.930Z,8.30
2018-06-22T04:54:23.380Z,8.50
2018-06-22T04:56:51.788Z,8.70
2018-06-22T04:59:20.236Z,8.90
2018-06-22T05:01:48.662Z,9.20
2018-06-22T05:04:17.119Z,9.30
2018-06-22T05:06:45.548Z,9.50
2018-06-22T05:09:14.022Z,9.50
2018-06-22T05:11:42.416Z,9.80
2018-06-22T05:14:10.849Z,10.00
2018-06-22T05:16:39.258Z,10.00
2018-06-22T05:21:35.793Z,9.90
2018-06-22T05:24:04.244Z,9.90
2018-06-22T05:26:32.752Z,9.90
2018-06-22T05:29:01.177Z,9.90
2018-06-22T05:31:29.650Z,10.00
2018-06-22T05:33:58.101Z,9.90
2018-06-22T05:36:26.491Z,9.80
2018-06-22T05:38:54.958Z,10.10
2018-06-22T05:41:23.397Z,10.30
2018-06-22T05:43:52.167Z,10.40
2018-06-22T05:46:20.593Z,10.50
2018-06-22T05:48:49.074Z,10.80
2018-06-22T05:51:17.492Z,11.00
2018-06-22T05:53:45.934Z,11.10
2018-06-22T05:56:14.349Z,11.00
2018-06-22T05:58:42.795Z,11.10
2018-06-22T06:01:11.221Z,11.30
2018-06-22T06:03:39.777Z,11.30
2018-06-22T06:06:08.107Z,11.40
2018-06-22T06:08:36.546Z,11.50
2018-06-22T06:11:05.048Z,11.50
2018-06-22T06:16:01.674Z,11.80
2018-06-22T06:18:30.133Z,12.10
2018-06-22T06:20:58.555Z,12.20
2018-06-22T06:23:27.005Z,12.20
2018-06-22T06:25:55.430Z,12.20
2018-06-22T06:28:23.866Z,12.30
2018-06-22T06:30:52.314Z,12.50
2018-06-22T06:33:20.727Z,12.60
2018-06-22T06:35:49.195Z,12.70
2018-06-22T06:40:45.722Z,12.30
2018-06-22T06:43:14.127Z,12.30
2018-06-22T06:45:42.585Z,12.70
2018-06-22T06:48:10.994Z,13.10
2018-06-22T06:50:39.418Z,13.20
2018-06-22T06:53:07.846Z,13.40
2018-06-22T06:58:04.501Z,13.60
2018-06-22T07:00:32.950Z,13.50
2018-06-22T07:03:01.481Z,13.60
2018-06-22T07:05:29.914Z,13.60
2018-06-22T07:07:58.357Z,13.90
2018-06-22T07:10:26.775Z,13.90
2018-06-22T07:12:55.234Z,14.00
2018-06-22T07:15:23.677Z,14.10
2018-06-22T07:17:52.107Z,14.20
2018-06-22T07:20:20.541Z,14.30
2018-06-22T07:22:48.995Z,14.40
2018-06-22T07:27:45.608Z,14.70
2018-06-22T07:30:14.053Z,14.60
2018-06-22T07:32:42.465Z,14.70
2018-06-22T07:35:10.914Z,14.80
2018-06-22T07:37:39.326Z,14.90
2018-06-22T07:40:07.781Z,15.00
2018-06-22T07:42:36.189Z,15.00
2018-06-22T07:45:04.842Z,15.00
2018-06-22T07:47:33.249Z,15.40
2018-06-22T07:50:01.702Z,15.40
2018-06-22T07:52:30.130Z,15.70
2018-06-22T07:54:58.562Z,16.00
2018-06-22T07:57:26.990Z,16.00
2018-06-22T07:59:55.425Z,15.90
2018-06-22T08:02:23.860Z,15.80
2018-06-22T08:07:20.414Z,15.20
2018-06-22T08:12:17.162Z,16.30
2018-06-22T08:17:13.750Z,16.00
2018-06-22T08:19:42.186Z,15.60
2018-06-22T08:22:10.609Z,15.60
2018-06-22T08:24:39.064Z,15.40
2018-06-22T08:27:07.501Z,15.00
2018-06-22T08:29:35.905Z,15.40
2018-06-22T08:32:04.418Z,15.60
2018-06-22T08:34:32.801Z,15.30
2018-06-22T08:37:01.241Z,15.50
2018-06-22T08:39:29.659Z,15.70
2018-06-22T08:41:58.170Z,15.60
2018-06-22T08:44:26.478Z,16.00
2018-06-22T08:46:54.924Z,15.80
2018-06-22T08:49:23.357Z,15.80
2018-06-22T08:51:51.788Z,15.60
2018-06-22T08:54:20.222Z,15.50
2018-06-22T08:56:48.685Z,15.70
2018-06-22T09:01:45.258Z,15.50
2018-06-22T09:04:13.698Z,15.60
2018-06-22T09:06:42.162Z,15.70
2018-06-22T09:09:10.601Z,15.60
2018-06-22T09:11:39.061Z,15.40
2018-06-22T09:14:07.488Z,15.50
2018-06-22T09:16:35.942Z,15.40
2018-06-22T09:19:04.374Z,15.40
2018-06-22T09:21:32.805Z,15.40
2018-06-22T09:24:01.257Z,15.80
2018-06-22T09:26:29.895Z,16.10
2018-06-22T09:28:58.442Z,16.10
2018-06-22T09:31:27.235Z,15.90
2018-06-22T09:33:55.689Z,15.80
2018-06-22T09:38:52.269Z,15.90
2018-06-22T09:41:20.738Z,15.80
2018-06-22T09:43:49.206Z,15.60
2018-06-22T09:48:46.150Z,17.30
2018-06-22T09:51:14.614Z,18.10
2018-06-22T09:53:43.037Z,18.20
2018-06-22T09:56:11.515Z,18.10
2018-06-22T09:58:39.947Z,18.70
2018-06-22T10:01:08.402Z,18.90
2018-06-22T10:03:36.795Z,18.90
2018-06-22T10:06:05.330Z,19.10
2018-06-22T10:08:33.767Z,19.80
2018-06-22T10:11:02.193Z,19.90
2018-06-22T10:13:30.627Z,19.00
2018-06-22T10:15:59.082Z,19.10
2018-06-22T10:18:27.486Z,19.20
2018-06-22T10:20:55.938Z,19.80
2018-06-22T10:23:24.346Z,20.60
2018-06-22T10:25:52.775Z,19.50
2018-06-22T10:28:21.197Z,18.70
2018-06-22T10:30:49.628Z,18.20
2018-06-22T10:33:18.045Z,18.50
2018-06-22T10:35:46.485Z,19.00
2018-06-22T10:38:14.926Z,19.90
2018-06-22T10:40:43.382Z,19.90
2018-06-22T10:43:11.839Z,19.70
2018-06-22T10:45:40.298Z,19.40
2018-06-22T10:50:36.889Z,18.10
2018-06-22T10:53:05.421Z,18.80
2018-06-22T10:55:33.885Z,19.60
2018-06-22T10:58:02.381Z,19.10
2018-06-22T11:00:30.981Z,19.40
2018-06-22T11:02:59.445Z,19.40
2018-06-22T11:05:27.926Z,20.50
2018-06-22T11:07:56.381Z,21.30
2018-06-22T11:10:24.818Z,22.00
2018-06-22T11:12:53.278Z,21.50
2018-06-22T11:15:21.739Z,21.80
2018-06-22T11:17:50.181Z,22.10
2018-06-22T11:20:18.641Z,21.50
2018-06-22T11:22:47.101Z,22.40
2018-06-22T11:25:15.529Z,23.40
2018-06-22T11:27:43.989Z,22.60
2018-06-22T11:30:12.421Z,21.00
2018-06-22T11:35:09.081Z,18.90
2018-06-22T11:40:05.701Z,19.40
2018-06-22T11:42:34.137Z,19.00
2018-06-22T11:45:02.770Z,18.90
2018-06-22T11:47:31.241Z,18.60
2018-06-22T11:49:59.675Z,19.00
2018-06-22T11:52:28.154Z,19.40
2018-06-22T11:54:56.592Z,19.70
2018-06-22T11:57:25.045Z,19.40
2018-06-22T11:59:53.492Z,19.30
2018-06-22T12:02:21.976Z,19.10
2018-06-22T12:04:50.441Z,18.40
2018-06-22T12:07:18.897Z,17.90
2018-06-22T12:09:47.310Z,17.70
2018-06-22T12:12:15.761Z,17.60
2018-06-22T12:14:44.210Z,17.60
2018-06-22T12:17:12.655Z,17.90
2018-06-22T12:19:41.076Z,17.90
2018-06-22T12:22:09.546Z,18.20
2018-06-22T12:24:38.002Z,18.50
2018-06-22T12:27:06.474Z,19.00
2018-06-22T12:29:34.916Z,19.20
2018-06-22T12:32:03.333Z,18.60
2018-06-22T12:34:31.826Z,18.20
2018-06-22T12:37:00.254Z,17.90
2018-06-22T12:39:28.744Z,18.00
2018-06-22T12:44:25.291Z,17.80
2018-06-22T12:46:53.699Z,17.60
2018-06-22T12:49:22.145Z,17.50
2018-06-22T12:51:50.610Z,17.30
2018-06-22T12:54:19.040Z,17.90
2018-06-22T12:56:47.469Z,18.50
2018-06-22T12:59:15.915Z,18.90
2018-06-22T13:01:44.325Z,19.00
2018-06-22T13:04:12.770Z,19.30
2018-06-22T13:06:41.213Z,18.90
2018-06-22T13:09:10.860Z,19.40
2018-06-22T13:11:39.298Z,20.00
2018-06-22T13:14:08.198Z,20.30
2018-06-22T13:16:36.654Z,21.10
2018-06-22T13:19:05.323Z,21.20
2018-06-22T13:21:42.641Z,20.70
2018-06-22T13:24:11.065Z,20.50
2018-06-22T13:26:39.485Z,20.50
2018-06-22T13:29:07.925Z,20.20
2018-06-22T13:31:36.445Z,20.10
2018-06-22T13:34:04.922Z,20.70
2018-06-22T13:36:33.362Z,21.40
2018-06-22T13:39:01.830Z,21.10
2018-06-22T13:41:30.289Z,21.20
2018-06-22T13:43:58.742Z,21.00
2018-06-22T13:46:27.192Z,21.00
2018-06-22T13:48:55.633Z,21.10
2018-06-22T13:51:24.081Z,21.70
2018-06-22T13:53:52.533Z,21.10
2018-06-22T13:56:20.941Z,21.90
2018-06-22T13:58:49.394Z,21.00
2018-06-22T14:01:17.810Z,20.10
2018-06-22T14:06:25.033Z,20.40
2018-06-22T14:08:53.475Z,22.50
2018-06-22T14:11:21.926Z,21.90
2018-06-22T14:13:50.435Z,20.50
2018-06-22T14:16:18.858Z,19.50
2018-06-22T14:18:47.277Z,19.60
2018-06-22T14:21:15.727Z,20.60
2018-06-22T14:23:44.152Z,20.50
2018-06-22T14:26:12.622Z,19.30
2018-06-22T14:28:41.062Z,18.90
2018-06-22T14:31:09.646Z,18.70
2018-06-22T14:33:38.106Z,18.70
2018-06-22T14:36:07.223Z,18.80
2018-06-22T14:38:35.643Z,19.30
2018-06-22T14:41:04.129Z,19.30
2018-06-22T14:46:00.693Z,19.10
2018-06-22T14:48:29.204Z,18.60
2018-06-22T14:50:57.674Z,18.70
2018-06-22T14:53:31.579Z,18.30
2018-06-22T14:56:05.387Z,18.10
2018-06-22T14:58:39.148Z,17.70
2018-06-22T15:01:12.762Z,17.60
2018-06-22T15:03:46.491Z,17.30
2018-06-22T15:08:48.488Z,17.70
2018-06-22T15:11:17.283Z,17.70
2018-06-22T15:13:47.902Z,17.70
2018-06-22T15:16:16.517Z,17.90
2018-06-22T15:18:45.202Z,18.50
2018-06-22T15:21:13.680Z,18.30
2018-06-22T15:23:42.129Z,18.10
2018-06-22T15:26:10.593Z,18.80
2018-06-22T15:28:38.994Z,19.20
2018-06-22T15:31:07.582Z,19.00
2018-06-22T15:33:41.247Z,19.20
2018-06-22T15:36:15.110Z,21.70
2018-06-22T15:38:48.870Z,21.10
2018-06-22T15:41:22.627Z,19.90
2018-06-22T15:43:56.293Z,20.20
2018-06-22T15:46:30.071Z,21.90
2018-06-22T15:52:39.033Z,20.30
2018-06-22T15:55:12.066Z,19.40
2018-06-22T15:57:40.523Z,18.70
2018-06-22T16:00:10.850Z,18.70
2018-06-22T16:02:44.653Z,18.70
2018-06-22T16:05:13.100Z,18.60
2018-06-22T16:07:41.577Z,18.30
2018-06-22T16:12:39.701Z,18.60
2018-06-22T16:15:14.692Z,18.50
2018-06-22T16:17:48.543Z,18.50
2018-06-22T16:20:22.173Z,18.20
2018-06-22T16:23:54.730Z,17.80
2018-06-22T16:26:28.449Z,17.50
2018-06-22T16:28:56.869Z,17.50
2018-06-22T16:33:55.386Z,17.90
2018-06-22T16:36:24.274Z,17.80
2018-06-22T16:38:52.741Z,17.70
2018-06-22T16:41:21.230Z,17.50
2018-06-22T16:43:49.754Z,17.50
2018-06-22T16:46:18.251Z,17.60
2018-06-22T16:48:46.641Z,17.40
2018-06-22T16:51:15.073Z,17.40
2018-06-22T16:53:43.499Z,17.40
2018-06-22T16:56:11.921Z,17.40
2018-06-22T16:58:41.114Z,17.40
2018-06-22T17:01:10.812Z,17.30
2018-06-22T17:03:39.238Z,17.10
2018-06-22T17:06:09.035Z,17.10
2018-06-22T17:08:42.678Z,16.80
2018-06-22T17:11:16.584Z,16.90
2018-06-22T17:13:50.182Z,16.70
2018-06-22T17:16:23.762Z,16.60
2018-06-22T17:18:53.833Z,16.50
2018-06-22T17:21:22.693Z,16.50
2018-06-22T17:23:51.254Z,16.40
2018-06-22T17:26:19.707Z,16.30
2018-06-22T17:28:48.217Z,16.40
2018-06-22T17:31:16.649Z,16.40
2018-06-22T17:33:45.074Z,16.50
2018-06-22T17:36:13.556Z,16.30
2018-06-22T17:38:42.006Z,16.30
2018-06-22T17:41:10.418Z,16.20
2018-06-22T17:43:38.894Z,16.40
2018-06-22T17:46:07.415Z,16.40
2018-06-22T17:48:35.800Z,16.40
2018-06-22T17:51:04.234Z,16.40
2018-06-22T17:53:32.675Z,16.40
2018-06-22T17:56:01.097Z,16.30
2018-06-22T17:58:29.557Z,16.30
2018-06-22T18:01:03.442Z,16.20
2018-06-22T18:03:37.712Z,16.20
2018-06-22T18:06:11.585Z,16.10
2018-06-22T18:08:45.981Z,15.90
2018-06-22T18:11:19.691Z,15.80
2018-06-22T18:13:48.113Z,15.60
2018-06-22T18:16:16.519Z,15.50
2018-06-22T18:18:44.929Z,15.40
2018-06-22T18:21:13.374Z,15.30
2018-06-22T18:23:41.829Z,15.10
2018-06-22T18:26:10.314Z,15.00
2018-06-22T18:28:38.752Z,15.00
2018-06-22T18:31:07.866Z,14.80
2018-06-22T18:33:36.328Z,14.60
2018-06-22T18:36:04.961Z,14.50
2018-06-22T18:38:33.405Z,14.40
2018-06-22T18:41:01.865Z,14.30
2018-06-22T18:43:35.661Z,14.30
2018-06-22T18:46:04.177Z,14.20
2018-06-22T18:48:32.642Z,14.20
2018-06-22T18:51:01.138Z,14.10
2018-06-22T18:53:35.003Z,14.00
2018-06-22T18:56:08.863Z,14.00
2018-06-22T18:58:42.590Z,13.90
2018-06-22T19:03:46.774Z,13.70
2018-06-22T19:06:15.269Z,13.60
2018-06-22T19:08:43.777Z,13.50
2018-06-22T19:11:12.270Z,13.50
2018-06-22T19:16:09.284Z,13.40
2018-06-22T19:18:37.826Z,13.30
2018-06-22T19:21:06.999Z,13.20
2018-06-22T19:23:35.450Z,13.10
2018-06-22T19:26:03.942Z,13.10
2018-06-22T19:28:32.398Z,13.10
2018-06-22T19:31:00.869Z,13.00
2018-06-22T19:33:29.439Z,12.90
2018-06-22T19:35:57.969Z,12.80
2018-06-22T19:38:26.415Z,12.80
2018-06-22T19:40:54.916Z,12.70
2018-06-22T19:44:29.195Z,12.60
2018-06-22T19:47:03.028Z,12.60
2018-06-22T19:49:36.901Z,12.40
2018-06-22T19:52:10.743Z,12.40
2018-06-22T19:54:39.211Z,12.30
2018-06-22T19:57:07.695Z,12.30
2018-06-22T19:59:36.157Z,12.20
2018-06-22T20:02:05.494Z,12.10
2018-06-22T20:04:33.953Z,12.10
2018-06-22T20:07:02.411Z,12.40
2018-06-22T20:09:30.857Z,12.60
2018-06-22T20:11:59.313Z,12.70
2018-06-22T20:14:27.777Z,12.80
2018-06-22T20:16:56.324Z,12.90
2018-06-22T20:19:24.950Z,12.90
2018-06-22T20:21:53.427Z,12.80
2018-06-22T20:24:27.205Z,12.80
2018-06-22T20:26:55.687Z,12.90
2018-06-22T20:29:24.302Z,12.90
2018-06-22T20:31:53.062Z,12.80
2018-06-22T20:34:26.893Z,12.70
2018-06-22T20:37:00.705Z,12.60
2018-06-22T20:39:34.394Z,12.50
2018-06-22T20:42:08.230Z,12.30
2018-06-22T20:44:42.069Z,12.10
2018-06-22T20:47:15.933Z,11.70
2018-06-22T20:50:49.378Z,11.40
2018-06-22T20:53:17.822Z,11.30
2018-06-22T20:55:46.282Z,11.10
2018-06-22T20:58:14.744Z,11.00
2018-06-22T21:00:43.182Z,10.90
2018-06-22T21:05:39.808Z,10.80
2018-06-22T21:08:08.266Z,10.80
2018-06-22T21:10:36.698Z,10.70
2018-06-22T21:15:33.381Z,10.60
2018-06-22T21:18:01.902Z,10.60
2018-06-22T21:20:30.360Z,10.60
2018-06-22T21:22:58.805Z,10.50
2018-06-22T21:25:27.286Z,10.50
2018-06-22T21:28:01.082Z,10.50
2018-06-22T21:33:08.325Z,10.40
2018-06-22T21:35:42.030Z,10.30
2018-06-22T21:38:15.814Z,10.40
2018-06-22T21:40:44.317Z,10.30
2018-06-22T21:43:12.775Z,10.20
2018-06-22T21:45:41.255Z,10.20
2018-06-22T21:48:09.729Z,10.20
2018-06-22T21:50:38.199Z,10.10
2018-06-22T21:53:06.657Z,10.00
2018-06-22T21:55:35.111Z,10.00
2018-06-22T21:58:03.654Z,9.90
2018-06-22T22:00:33.819Z,9.80
2018-06-22T22:03:02.756Z,9.80
2018-06-22T22:05:31.723Z,9.80
2018-06-22T22:08:00.385Z,9.70
2018-06-22T22:10:34.001Z,9.70
2018-06-22T22:13:02.458Z,9.70
2018-06-22T22:15:30.882Z,9.60
2018-06-22T22:17:59.381Z,9.60
2018-06-22T22:20:27.825Z,9.50
2018-06-22T22:22:56.265Z,9.50
2018-06-22T22:25:24.732Z,9.50
2018-06-22T22:27:53.169Z,9.40
2018-06-22T22:30:21.662Z,9.40
2018-06-22T22:32:50.106Z,9.40
2018-06-22T22:35:18.556Z,9.40
2018-06-22T22:37:47.003Z,9.30
2018-06-22T22:42:43.594Z,9.20
2018-06-22T22:45:12.066Z,9.20
2018-06-22T22:47:40.502Z,9.10
2018-06-22T22:50:08.974Z,9.10
2018-06-22T22:52:37.418Z,9.00
2018-06-22T22:55:05.969Z,9.00
2018-06-22T22:57:34.406Z,8.90
2018-06-22T23:00:02.893Z,8.90
2018-06-22T23:02:31.333Z,8.80
2018-06-22T23:04:59.793Z,8.70
2018-06-22T23:07:28.230Z,8.60
2018-06-22T23:09:56.675Z,8.50
2018-06-22T23:12:25.145Z,8.50
2018-06-22T23:14:53.608Z,8.50
2018-06-22T23:17:22.021Z,8.50
2018-06-22T23:19:50.474Z,8.50
2018-06-22T23:22:24.507Z,8.50
2018-06-22T23:24:52.953Z,8.50
2018-06-22T23:27:21.404Z,8.50
2018-06-22T23:29:49.849Z,8.40
2018-06-22T23:32:18.262Z,8.40
2018-06-22T23:34:46.710Z,8.40
2018-06-22T23:37:15.121Z,8.40
2018-06-22T23:39:43.562Z,8.30
2018-06-22T23:42:11.962Z,8.30
2018-06-22T23:44:40.389Z,8.30
2018-06-22T23:47:08.806Z,8.40
2018-06-22T23:49:37.309Z,8.30
2018-06-22T23:52:05.706Z,8.30
2018-06-22T23:54:34.149Z,8.30
2018-06-22T23:57:02.660Z,8.30
2018-06-22T23:59:31.101Z,8.30
